Historyczne dane pomiarowe

Dodano dane terminowe – wersja testowa.

Dane z okresu 1951-2019

Wersja bazy: 1.34 [2019-03-16, lista zmian], aktualizacja planowana na 2019-04-15

Dane meteo z obszaru Polski uzyskane na podstawie danych udostępnionych przez Instytut Meteorologii i Gospodarki Wodnej – Państwowy Instytut Badawczy.

 

Wybierz Datę:    

       

TemperaturaWilgotnośćWiatrCiśnienieOpadyŚniegCzas trwania zjawisk
 Stacja t tx tn tng RH VA  wxwx mslp ppp RRR   cm mm wxwxwxwxwxwxwx
1987-08-14 13.7 18.0 10.3 8.5-- 8.0 1.0---- 1.4------------
1987-08-13 13.7 21.7 5.1 1.5-- 2.0 1.7---- 0.5------------
1987-08-12 13.4 18.5 8.4 5.4-- 2.0 3.3---- 0.0------------
1987-08-11 12.2 18.2 10.5 7.4-- 6.0 1.3---- 3.1------------
1987-08-10 14.2 17.0 13.0 11.9-- 7.7 2.0---- 2.7------------
1987-08-09 16.0 22.3 9.9 7.0-- 5.3 3.0---- 15.8------------
1987-08-08 14.2 20.2 6.5 4.5-- 4.7 2.0---- 0.3------------
1987-08-07 12.3 18.7 6.8 5.5-- 2.0 1.7---- 0.0------------
1987-08-06 10.9 13.5 9.5 7.5-- 6.0 3.7---- 1.7------------
1987-08-05 12.3 17.2 8.7 6.5-- 5.7 5.0---- 0.6------------
1987-08-04 13.8 18.4 9.8 7.8-- 8.0 3.3---- 1.5------------
1987-08-03 13.1 18.2 9.6 8.6-- 6.0 1.3---- 0.6------------
1987-08-02 13.2 17.6 10.6 8.9-- 6.0 4.3---- 9.2------------
1987-08-01 15.8 18.0 14.5 14.1-- 7.0 3.3---- 4.5------------
1987-07-31 15.1 18.1 13.2 12.0-- 7.7 2.7---- 0.3------------
1987-07-30 16.2 23.6 10.5 8.5-- 6.7 1.7---- 2.2------------
1987-07-29 13.6 17.8 10.8 9.5-- 7.0 1.3---- 0.0------------
1987-07-28 13.9 17.8 12.5 11.3-- 6.7 4.3---- 0.3------------
1987-07-27 12.5 17.0 9.7 8.8-- 8.0 6.0---- 0.3------------
1987-07-26 13.5 17.2 9.2 7.5-- 3.3 4.7---- 0.0------------
1987-07-25 15.3 19.4 14.2 11.6-- 6.7 2.3---- 0.0------------
1987-07-24 18.3 23.4 13.9 11.9-- 4.7 2.7---- 0.0------------
1987-07-23 18.6 25.1 13.1 10.5-- 6.0 1.3---- 25.3------------
1987-07-22 19.3 23.5 16.2 16.1-- 4.7 1.3---- 0.0------------
1987-07-21 18.8 23.0 13.2 9.9-- 7.3 1.7---- 23.5------------
1987-07-20 19.0 23.1 15.2 14.6-- 4.0 2.3---- 0.0------------
1987-07-19 18.7 22.0 16.1 15.6-- 6.7 2.3---- 2.5------------
1987-07-18 20.2 23.5 16.6 14.3-- 6.7 1.3---- 23.5------------
1987-07-17 19.8 26.0 16.2 15.3-- 5.0 4.3---- 1.5------------
1987-07-16 17.7 23.8 12.3 8.3-- 6.0 4.0---- 0.0------------
1987-07-15 16.8 22.0 10.6 5.6-- 2.3 3.7---- 0.0------------
1987-07-14 16.0 21.9 10.0 8.8-- 0.7 1.7---- 0.0------------
1987-07-13 15.0 19.4 12.0 8.6-- 5.0 3.0---- 0.0------------
1987-07-12 16.7 21.5 15.0 13.4-- 4.7 2.0---- 15.3------------
1987-07-11 15.5 22.4 10.7 6.6-- 8.0 2.3---- 42.4------------
1987-07-10 13.8 17.7 9.9 6.9-- 4.3 3.3---- 0.1------------
1987-07-09 16.3 20.5 15.0 13.6-- 5.3 2.0---- 0.0------------
1987-07-08 19.9 26.5 14.8 11.0-- 6.3 2.0---- 7.6------------
1987-07-07 20.2 26.4 12.3 6.2-- 1.7 2.7---- 0.0------------
1987-07-06 18.6 24.9 9.1 5.6-- 0.0 1.0---- 0.0------------
1987-07-05 16.7 21.5 8.5 6.7-- 1.7 2.0---- 0.0------------
1987-07-04 16.6 21.6 10.9 9.8-- 3.0 2.3---- 0.0------------
1987-07-03 16.9 22.0 10.1 4.9-- 1.7 1.0---- 0.0------------
1987-07-02 18.0 23.0 11.9 9.5-- 0.0 1.0---- 0.0------------
1987-07-01 22.3 29.3 19.7 18.0-- 5.3 2.7---- 9.7------------
1987-06-30 24.0 28.9 16.5 14.7-- 0.0 2.0---- 0.0------------
1987-06-29 19.9 26.3 11.6 10.0-- 7.0 2.3---- 0.0------------
1987-06-28 18.4 21.2 13.6 10.6-- 6.7 2.7---- 0.0------------
1987-06-27 17.4 21.9 14.0 12.5-- 2.3 1.0---- 0.0------------
1987-06-26 16.8 21.2 11.7 9.4-- 3.3 1.7---- 0.0------------
1987-06-25 14.1 17.2 11.5 10.2-- 6.3 2.3---- 0.0------------
1987-06-24 14.3 19.1 9.8 9.5-- 8.0 3.0---- 6.2------------
1987-06-23 14.5 19.1 10.1 6.4-- 6.0 3.0---- 5.2------------
1987-06-22 14.8 20.2 13.4 12.3-- 8.0 2.7---- 1.2------------
1987-06-21 17.5 22.4 10.4 9.5-- 3.3 2.3---- 2.9------------
1987-06-20 15.6 20.5 7.5 2.5-- 2.0 2.0---- 0.0------------
1987-06-19 12.1 16.8 9.1 8.5-- 5.3 3.7---- 0.0------------
1987-06-18 10.9 14.7 6.6 5.2-- 7.3 4.3---- 4.3------------
1987-06-17 12.3 14.4 9.4 9.0-- 5.3 4.0---- 0.0------------
1987-06-16 11.0 20.4 9.5 8.0-- 8.0 5.0---- 0.0------------
391.5 ms

 

Źródłem pochodzenia danych jest Instytut Meteorologii i Gospodarki Wodnej – Państwowy Instytut Badawczy. Dane Instytutu Meteorologii i Gospodarki Wodnej – Państwowego Instytutu Badawczego zostały przetworzone.

Dane źródłowe można odnaleźć na stronie https://dane.imgw.pl